Time;durP1;ratioP1;P1;durP2;ratioP2;P2;SDS_P1;SDS_P2;PMS_P1;PMS_P2;Temp;Humidity;BMP_temperature;BMP_pressure;BME280_temperature;BME280_humidity;BME280_pressure;Samples;Min_cycle;Max_cycle;Signal;HPM_P1;HPM_P2
2021/06/23 00:01:38;;;;;;;11.40;10.25;;;;;;;;;;5076445;28;20043;-60
2021/06/23 00:04:03;;;;;;;12.55;10.07;;;;;;;;;;5094231;28;20053;-60
2021/06/23 00:06:30;;;;;;;12.55;10.85;;;;;;;;;;5076089;28;20023;-60
2021/06/23 00:08:55;;;;;;;10.82;9.88;;;;;;;;;;5093963;28;20063;-61
2021/06/23 00:11:21;;;;;;;13.00;10.73;;;;;;;;;;5094287;28;20043;-61
2021/06/23 00:13:49;;;;;;;13.05;11.23;;;;;;;;;;5094271;28;20028;-61
2021/06/23 00:16:14;;;;;;;13.25;10.82;;;;;;;;;;5093874;28;20064;-63
2021/06/23 00:18:39;;;;;;;16.73;11.70;;;;;;;;;;5093485;28;20119;-64
2021/06/23 00:21:05;;;;;;;12.00;10.77;;;;;;;;;;5093661;28;20016;-64
2021/06/23 00:23:30;;;;;;;11.85;10.60;;;;;;;;;;5093642;28;20022;-63
2021/06/23 00:25:56;;;;;;;11.82;10.45;;;;;;;;;;5093868;28;20356;-64
2021/06/23 00:28:22;;;;;;;14.75;10.90;;;;;;;;;;5093964;28;20082;-60
2021/06/23 00:30:48;;;;;;;12.88;10.98;;;;;;;;;;5093253;28;20028;-60
2021/06/23 00:33:18;;;;;;;11.90;10.60;;;;;;;;;;5093774;28;20402;-61
2021/06/23 00:35:44;;;;;;;13.82;11.98;;;;;;;;;;5075730;28;20027;-60
2021/06/23 00:38:10;;;;;;;13.68;12.05;;;;;;;;;;5093422;28;20024;-60
2021/06/23 00:40:35;;;;;;;13.52;11.65;;;;;;;;;;5093617;28;20490;-60
2021/06/23 00:43:02;;;;;;;13.70;11.48;;;;;;;;;;5093500;28;20024;-60
2021/06/23 00:45:29;;;;;;;15.88;12.48;;;;;;;;;;5093765;28;20102;-60
2021/06/23 00:47:56;;;;;;;13.95;12.10;;;;;;;;;;5093838;28;20035;-60
2021/06/23 00:50:25;;;;;;;13.98;11.32;;;;;;;;;;5075485;28;20035;-60
2021/06/23 00:53:08;;;;;;;13.90;12.13;;;;;;;;;;5075732;28;20094;-61
2021/06/23 00:55:36;;;;;;;15.73;13.63;;;;;;;;;;5059030;28;20020;-60
2021/06/23 00:58:04;;;;;;;16.73;12.05;;;;;;;;;;5093468;28;20381;-61
2021/06/23 01:00:33;;;;;;;16.52;13.45;;;;;;;;;;5075270;28;20466;-60
2021/06/23 01:03:02;;;;;;;14.98;13.20;;;;;;;;;;5093661;28;20036;-61
2021/06/23 01:05:30;;;;;;;14.90;13.40;;;;;;;;;;5075357;28;20028;-61
2021/06/23 01:07:56;;;;;;;14.88;13.32;;;;;;;;;;5093473;28;20174;-61
2021/06/23 01:10:22;;;;;;;16.38;14.32;;;;;;;;;;5093135;28;20036;-61
2021/06/23 01:12:47;;;;;;;18.17;15.38;;;;;;;;;;5075476;28;20023;-61
2021/06/23 01:15:14;;;;;;;18.08;14.85;;;;;;;;;;5093391;28;20028;-61
2021/06/23 01:17:40;;;;;;;16.83;13.98;;;;;;;;;;5075365;28;20074;-61
2021/06/23 01:20:07;;;;;;;17.55;13.82;;;;;;;;;;5093206;28;20060;-61
2021/06/23 01:22:37;;;;;;;14.98;12.48;;;;;;;;;;5075174;28;20016;-60
2021/06/23 01:25:03;;;;;;;12.40;11.10;;;;;;;;;;5074941;28;20048;-60
2021/06/23 01:27:28;;;;;;;14.48;12.45;;;;;;;;;;5074705;28;20103;-60
2021/06/23 01:29:54;;;;;;;15.43;12.15;;;;;;;;;;5075050;28;20123;-60
2021/06/23 01:32:38;;;;;;;13.60;10.93;;;;;;;;;;5077972;28;20016;-60
2021/06/23 01:35:04;;;;;;;14.05;11.73;;;;;;;;;;5078783;28;20107;-60
2021/06/23 01:37:30;;;;;;;13.95;11.30;;;;;;;;;;5078854;28;20030;-61
2021/06/23 01:39:58;;;;;;;14.20;11.68;;;;;;;;;;5078916;28;20032;-61
2021/06/23 01:42:24;;;;;;;15.60;11.98;;;;;;;;;;5078963;28;20344;-61
2021/06/23 01:44:53;;;;;;;12.77;11.20;;;;;;;;;;5078879;28;20122;-61
2021/06/23 01:47:19;;;;;;;15.90;13.25;;;;;;;;;;5079186;28;20258;-60
2021/06/23 01:49:45;;;;;;;15.70;12.60;;;;;;;;;;5096644;28;20487;-64
2021/06/23 01:52:11;;;;;;;18.58;13.05;;;;;;;;;;5078479;28;20359;-64
2021/06/23 01:54:41;;;;;;;14.60;12.80;;;;;;;;;;5096725;28;20035;-64
2021/06/23 01:57:10;;;;;;;15.98;11.88;;;;;;;;;;5078414;28;20028;-64
2021/06/23 01:59:37;;;;;;;16.48;11.88;;;;;;;;;;5077866;28;20092;-64
2021/06/23 02:02:34;;;;;;;15.70;13.10;;;;;;;;;;5081797;28;20025;-64
2021/06/23 02:05:11;;;;;;;14.32;12.77;;;;;;;;;;5078438;28;20032;-64
2021/06/23 02:07:46;;;;;;;13.98;11.52;;;;;;;;;;5078314;28;20089;-64
2021/06/23 02:10:32;;;;;;;17.08;12.48;;;;;;;;;;5096236;28;20051;-64
2021/06/23 02:13:27;;;;;;;15.63;12.07;;;;;;;;;;5096510;28;20036;-64
2021/06/23 02:15:56;;;;;;;17.05;12.27;;;;;;;;;;5078151;28;20028;-64
2021/06/23 02:18:25;;;;;;;14.88;12.50;;;;;;;;;;5078034;28;20050;-64
2021/06/23 02:21:09;;;;;;;16.13;12.27;;;;;;;;;;5096449;28;20093;-64
2021/06/23 02:23:41;;;;;;;13.38;11.32;;;;;;;;;;5061932;28;20567;-64
2021/06/23 02:26:06;;;;;;;12.10;10.35;;;;;;;;;;5077963;28;20089;-64
2021/06/23 02:28:32;;;;;;;12.43;11.07;;;;;;;;;;5077898;28;20016;-64
2021/06/23 02:30:58;;;;;;;12.90;10.93;;;;;;;;;;5077796;28;20375;-64
2021/06/23 02:33:24;;;;;;;11.93;10.73;;;;;;;;;;5077863;28;20583;-63
2021/06/23 02:35:57;;;;;;;14.43;11.15;;;;;;;;;;5096090;28;20028;-63
2021/06/23 02:38:29;;;;;;;13.18;10.98;;;;;;;;;;5078025;28;20111;-64
2021/06/23 02:40:58;;;;;;;11.48;10.23;;;;;;;;;;5061248;28;20379;-64
2021/06/23 02:43:23;;;;;;;14.02;10.98;;;;;;;;;;5077235;28;20024;-65
2021/06/23 02:45:51;;;;;;;12.52;10.68;;;;;;;;;;5077338;28;20198;-64
2021/06/23 02:48:19;;;;;;;12.40;10.73;;;;;;;;;;5095554;28;20106;-64
2021/06/23 02:50:59;;;;;;;12.35;11.02;;;;;;;;;;5077442;28;20036;-64
2021/06/23 02:53:29;;;;;;;12.10;10.10;;;;;;;;;;5060541;28;20027;-64
2021/06/23 02:55:55;;;;;;;13.43;10.30;;;;;;;;;;5077493;28;20438;-64
2021/06/23 02:58:21;;;;;;;11.70;10.43;;;;;;;;;;5077383;28;20028;-64
2021/06/23 03:00:49;;;;;;;13.00;10.55;;;;;;;;;;5095352;28;20043;-64
2021/06/23 03:03:15;;;;;;;11.02;9.48;;;;;;;;;;5076923;28;20036;-64
2021/06/23 03:05:41;;;;;;;13.65;9.77;;;;;;;;;;5076996;28;20489;-64
2021/06/23 03:08:08;;;;;;;9.68;8.75;;;;;;;;;;5095392;28;20024;-64
2021/06/23 03:10:40;;;;;;;13.10;10.68;;;;;;;;;;5095194;28;20020;-64
2021/06/23 03:13:05;;;;;;;14.27;11.98;;;;;;;;;;5094953;28;20028;-64
2021/06/23 03:15:34;;;;;;;14.20;10.82;;;;;;;;;;5094866;28;20081;-64
2021/06/23 03:18:08;;;;;;;12.68;10.20;;;;;;;;;;5094939;28;20106;-64
2021/06/23 03:20:34;;;;;;;12.80;11.38;;;;;;;;;;5077001;28;20023;-64
2021/06/23 03:23:00;;;;;;;11.07;9.98;;;;;;;;;;5060197;28;20024;-64
2021/06/23 03:25:26;;;;;;;12.13;10.27;;;;;;;;;;5094923;28;20035;-64
2021/06/23 03:27:55;;;;;;;14.35;10.23;;;;;;;;;;5095287;28;20038;-64
2021/06/23 03:30:22;;;;;;;12.57;10.73;;;;;;;;;;5076478;28;20494;-64
2021/06/23 03:32:50;;;;;;;12.65;11.23;;;;;;;;;;5076398;28;20018;-64
2021/06/23 03:35:17;;;;;;;15.73;11.50;;;;;;;;;;5076549;28;20027;-64
2021/06/23 03:37:43;;;;;;;12.80;11.23;;;;;;;;;;5076479;28;20378;-64
2021/06/23 03:40:09;;;;;;;13.88;11.50;;;;;;;;;;5094593;28;20028;-62
2021/06/23 03:42:38;;;;;;;12.30;10.65;;;;;;;;;;5076461;28;20035;-61
2021/06/23 03:45:04;;;;;;;14.57;10.55;;;;;;;;;;5094708;28;20034;-61
2021/06/23 03:47:30;;;;;;;12.38;11.05;;;;;;;;;;5076329;28;20027;-61
2021/06/23 03:49:56;;;;;;;14.73;11.38;;;;;;;;;;5094124;28;20081;-61
2021/06/23 03:52:22;;;;;;;13.38;11.38;;;;;;;;;;5076061;28;20012;-64
2021/06/23 03:54:48;;;;;;;18.25;12.23;;;;;;;;;;5075590;28;20352;-64
2021/06/23 03:57:13;;;;;;;16.10;12.20;;;;;;;;;;5059584;28;20070;-64
2021/06/23 03:59:40;;;;;;;15.73;11.40;;;;;;;;;;5075678;28;20051;-64
2021/06/23 04:02:06;;;;;;;15.10;11.85;;;;;;;;;;5094159;28;20028;-64
2021/06/23 04:04:32;;;;;;;13.35;11.98;;;;;;;;;;5075943;28;20028;-64
2021/06/23 04:07:08;;;;;;;15.95;12.07;;;;;;;;;;5094169;28;20028;-64
2021/06/23 04:09:34;;;;;;;15.18;12.30;;;;;;;;;;5075675;28;20471;-64
2021/06/23 04:12:03;;;;;;;15.45;12.77;;;;;;;;;;5075643;28;20032;-61
2021/06/23 04:14:36;;;;;;;16.50;13.20;;;;;;;;;;5060497;28;20364;-61
2021/06/23 04:17:03;;;;;;;17.13;13.52;;;;;;;;;;5076062;28;20282;-61
2021/06/23 04:19:29;;;;;;;16.55;13.45;;;;;;;;;;5076137;28;20059;-61
2021/06/23 04:21:58;;;;;;;12.90;11.18;;;;;;;;;;5075281;28;20032;-61
2021/06/23 04:24:24;;;;;;;12.30;11.00;;;;;;;;;;5075910;28;20031;-61
2021/06/23 04:26:51;;;;;;;12.93;11.10;;;;;;;;;;5059217;28;20035;-61
2021/06/23 04:29:18;;;;;;;14.70;12.02;;;;;;;;;;5075473;28;20020;-61
2021/06/23 04:31:46;;;;;;;13.25;11.52;;;;;;;;;;5075321;28;20036;-61
2021/06/23 04:34:14;;;;;;;15.00;11.18;;;;;;;;;;5075229;28;20008;-61
2021/06/23 04:36:42;;;;;;;12.98;10.50;;;;;;;;;;5075365;28;20501;-60
2021/06/23 04:39:09;;;;;;;14.02;11.35;;;;;;;;;;5093562;28;20074;-62
2021/06/23 04:41:47;;;;;;;12.82;11.52;;;;;;;;;;5075778;28;20047;-60
2021/06/23 04:44:13;;;;;;;12.48;11.02;;;;;;;;;;5075791;28;20087;-62
2021/06/23 04:46:39;;;;;;;11.52;10.18;;;;;;;;;;5075598;28;20050;-61
2021/06/23 04:49:06;;;;;;;11.55;10.43;;;;;;;;;;5075217;28;20066;-61
2021/06/23 04:52:04;;;;;;;11.98;10.65;;;;;;;;;;5092933;28;20391;-60
2021/06/23 04:54:30;;;;;;;13.02;11.50;;;;;;;;;;5075390;28;20107;-61
2021/06/23 04:56:56;;;;;;;13.48;11.10;;;;;;;;;;5075054;28;20142;-62
2021/06/23 04:59:22;;;;;;;12.35;10.93;;;;;;;;;;5093051;28;20482;-61
2021/06/23 05:01:48;;;;;;;13.32;10.90;;;;;;;;;;5058652;28;20054;-61
2021/06/23 05:04:14;;;;;;;11.55;10.35;;;;;;;;;;5075346;28;20036;-61
2021/06/23 05:06:39;;;;;;;11.93;10.05;;;;;;;;;;5096607;28;20023;-60
2021/06/23 05:09:08;;;;;;;11.18;10.05;;;;;;;;;;5097331;28;20519;-60
2021/06/23 05:11:34;;;;;;;10.95;9.85;;;;;;;;;;5097683;28;20024;-61
2021/06/23 05:14:00;;;;;;;11.68;10.30;;;;;;;;;;5097623;28;20107;-60
2021/06/23 05:16:26;;;;;;;12.57;10.20;;;;;;;;;;5097587;28;20019;-60
2021/06/23 05:18:52;;;;;;;10.38;9.07;;;;;;;;;;5097538;28;20032;-60
2021/06/23 05:21:18;;;;;;;10.52;9.43;;;;;;;;;;5097601;28;20075;-60
2021/06/23 05:23:44;;;;;;;11.35;9.00;;;;;;;;;;5097210;28;20051;-61
2021/06/23 05:26:09;;;;;;;13.27;9.75;;;;;;;;;;5097486;28;20027;-61
2021/06/23 05:28:35;;;;;;;10.45;9.38;;;;;;;;;;5096818;28;20020;-59
2021/06/23 05:31:00;;;;;;;14.63;11.02;;;;;;;;;;5079024;28;20070;-61
2021/06/23 05:33:26;;;;;;;13.60;10.88;;;;;;;;;;5096744;28;20063;-60
2021/06/23 05:35:51;;;;;;;13.52;10.55;;;;;;;;;;5097039;28;20015;-60
2021/06/23 05:38:17;;;;;;;14.70;11.07;;;;;;;;;;5096895;28;20032;-60
2021/06/23 05:40:42;;;;;;;15.35;11.05;;;;;;;;;;5097054;28;20102;-61
2021/06/23 05:43:08;;;;;;;17.23;12.93;;;;;;;;;;5096869;28;20395;-61
2021/06/23 05:45:33;;;;;;;13.93;11.45;;;;;;;;;;5096855;28;20332;-60
2021/06/23 05:47:59;;;;;;;17.58;13.30;;;;;;;;;;5078701;28;20107;-61
2021/06/23 05:50:24;;;;;;;17.98;12.75;;;;;;;;;;5096860;28;20026;-60
2021/06/23 05:52:50;;;;;;;18.40;14.07;;;;;;;;;;5096669;28;20383;-60
2021/06/23 05:55:21;;;;;;;15.90;13.25;;;;;;;;;;5078424;28;20042;-60
2021/06/23 05:57:50;;;;;;;16.50;12.07;;;;;;;;;;5096579;28;20051;-60
2021/06/23 06:00:16;;;;;;;18.30;14.85;;;;;;;;;;5095643;28;20051;-60
2021/06/23 06:02:43;;;;;;;16.17;13.35;;;;;;;;;;5078544;28;20556;-60
2021/06/23 06:05:08;;;;;;;17.38;13.85;;;;;;;;;;5096219;28;20036;-60
2021/06/23 06:07:34;;;;;;;22.20;16.83;;;;;;;;;;5096105;28;20077;-60
2021/06/23 06:09:59;;;;;;;17.92;14.90;;;;;;;;;;5096288;28;20024;-60
2021/06/23 06:12:25;;;;;;;20.02;14.80;;;;;;;;;;5078346;28;20035;-61
2021/06/23 06:14:52;;;;;;;23.20;17.25;;;;;;;;;;5096318;28;20020;-60
2021/06/23 06:17:18;;;;;;;20.60;16.95;;;;;;;;;;5095338;28;20519;-60
2021/06/23 06:19:43;;;;;;;21.70;16.80;;;;;;;;;;5096150;28;20016;-60
2021/06/23 06:22:09;;;;;;;24.60;16.60;;;;;;;;;;5077737;28;20115;-60
2021/06/23 06:24:34;;;;;;;20.80;17.50;;;;;;;;;;5095972;28;20024;-60
2021/06/23 06:27:00;;;;;;;20.17;15.77;;;;;;;;;;5095912;28;20361;-60
2021/06/23 06:29:25;;;;;;;24.48;18.00;;;;;;;;;;5096117;28;20069;-61
2021/06/23 06:31:51;;;;;;;26.05;18.75;;;;;;;;;;5095882;28;20024;-60
2021/06/23 06:34:16;;;;;;;24.13;19.02;;;;;;;;;;5095715;28;20016;-61
2021/06/23 06:36:42;;;;;;;23.73;17.80;;;;;;;;;;5077690;28;20030;-60
2021/06/23 06:39:08;;;;;;;22.13;17.13;;;;;;;;;;5096032;28;20024;-60
2021/06/23 06:41:34;;;;;;;23.17;16.55;;;;;;;;;;5095933;28;20085;-61
2021/06/23 06:43:59;;;;;;;22.55;16.38;;;;;;;;;;5095507;28;20530;-62
2021/06/23 06:46:25;;;;;;;18.13;15.73;;;;;;;;;;5095735;28;20459;-61
2021/06/23 06:48:51;;;;;;;18.42;15.68;;;;;;;;;;5095090;28;20103;-61
2021/06/23 06:51:17;;;;;;;17.70;14.90;;;;;;;;;;5094763;28;20099;-60
2021/06/23 06:53:42;;;;;;;21.63;16.05;;;;;;;;;;5094573;28;20503;-61
2021/06/23 06:56:08;;;;;;;26.77;18.80;;;;;;;;;;5094821;28;20020;-61
2021/06/23 06:58:33;;;;;;;24.20;18.38;;;;;;;;;;5094623;28;20069;-62
2021/06/23 07:00:59;;;;;;;27.63;20.42;;;;;;;;;;5072377;28;20044;-61
2021/06/23 07:03:24;;;;;;;23.00;16.85;;;;;;;;;;5073960;28;20502;-61
2021/06/23 07:05:49;;;;;;;22.33;17.38;;;;;;;;;;5073526;28;20446;-60
2021/06/23 07:08:15;;;;;;;23.73;18.27;;;;;;;;;;5074908;28;20021;-61
2021/06/23 07:10:40;;;;;;;26.30;18.77;;;;;;;;;;5074750;28;20043;-60
2021/06/23 07:13:06;;;;;;;25.05;17.48;;;;;;;;;;5073516;28;20025;-60
2021/06/23 07:15:31;;;;;;;22.55;17.95;;;;;;;;;;5074636;28;20021;-61
2021/06/23 07:17:58;;;;;;;29.13;19.58;;;;;;;;;;5074571;28;20016;-61
2021/06/23 07:20:23;;;;;;;23.60;18.20;;;;;;;;;;5073457;28;20085;-61
2021/06/23 07:22:49;;;;;;;19.60;15.82;;;;;;;;;;5073229;28;20519;-61
2021/06/23 07:25:14;;;;;;;22.40;17.55;;;;;;;;;;5074478;28;20568;-61
2021/06/23 07:27:40;;;;;;;27.77;20.17;;;;;;;;;;5074446;28;20024;-61
2021/06/23 07:30:06;;;;;;;25.45;19.02;;;;;;;;;;5072019;28;20139;-61
2021/06/23 07:32:35;;;;;;;24.60;18.65;;;;;;;;;;5074192;28;20383;-61
2021/06/23 07:37:44;;;;;;;23.13;17.88;;;;;;;;;;5074270;28;20040;-61
2021/06/23 07:40:11;;;;;;;28.23;19.10;;;;;;;;;;5074052;28;20028;-60
2021/06/23 07:42:36;;;;;;;21.75;16.40;;;;;;;;;;5074137;28;20107;-60
2021/06/23 07:45:04;;;;;;;22.80;16.80;;;;;;;;;;5074197;28;20108;-61
2021/06/23 07:47:33;;;;;;;21.73;16.98;;;;;;;;;;5074019;28;20039;-61
2021/06/23 07:49:59;;;;;;;15.55;13.13;;;;;;;;;;5072624;28;20056;-62
2021/06/23 07:55:12;;;;;;;20.80;15.90;;;;;;;;;;5073868;28;20099;-62
2021/06/23 08:08:11;;;;;;;23.60;17.23;;;;;;;;;;5094041;28;20109;-61
2021/06/23 08:08:51;;;;;;;21.17;16.73;;;;;;;;;;5093937;28;20369;-61
2021/06/23 08:11:31;;;;;;;20.05;16.80;;;;;;;;;;5075756;28;20035;-61
2021/06/23 08:13:57;;;;;;;22.52;17.75;;;;;;;;;;5075615;28;20086;-61
2021/06/23 08:16:22;;;;;;;21.73;17.15;;;;;;;;;;5093713;28;20494;-61
2021/06/23 08:18:48;;;;;;;20.35;15.50;;;;;;;;;;5093551;28;20421;-60
2021/06/23 08:21:13;;;;;;;17.50;13.80;;;;;;;;;;5093623;28;20100;-60
2021/06/23 08:23:38;;;;;;;18.05;14.68;;;;;;;;;;5093552;28;20387;-60
2021/06/23 08:26:04;;;;;;;18.77;14.20;;;;;;;;;;5093630;28;20046;-61
2021/06/23 08:28:29;;;;;;;18.85;15.02;;;;;;;;;;5093555;28;20028;-61
2021/06/23 08:30:55;;;;;;;19.73;14.57;;;;;;;;;;5093402;28;20031;-62
2021/06/23 08:33:25;;;;;;;19.98;13.75;;;;;;;;;;5093475;28;20031;-62
2021/06/23 08:35:51;;;;;;;21.50;17.02;;;;;;;;;;5093422;28;20059;-61
2021/06/23 08:38:16;;;;;;;30.27;20.25;;;;;;;;;;5093392;28;20036;-62
2021/06/23 08:40:42;;;;;;;24.98;18.15;;;;;;;;;;5092917;28;20387;-61
2021/06/23 08:43:07;;;;;;;26.13;17.75;;;;;;;;;;5093065;28;20024;-61
2021/06/23 08:45:33;;;;;;;26.15;18.55;;;;;;;;;;5093344;28;20046;-61
2021/06/23 08:47:58;;;;;;;22.25;17.08;;;;;;;;;;5075070;28;20460;-60
2021/06/23 08:50:24;;;;;;;26.90;18.83;;;;;;;;;;5075155;28;20028;-61
2021/06/23 08:52:50;;;;;;;26.45;18.10;;;;;;;;;;5093282;28;20049;-60
2021/06/23 08:55:19;;;;;;;30.02;20.67;;;;;;;;;;5093113;28;20032;-61
2021/06/23 08:57:48;;;;;;;26.47;18.43;;;;;;;;;;5093065;28;20054;-62
2021/06/23 09:00:14;;;;;;;24.37;18.67;;;;;;;;;;5092683;28;20048;-61
2021/06/23 09:02:43;;;;;;;22.77;16.35;;;;;;;;;;5072895;28;20646;-61
2021/06/23 09:05:11;;;;;;;31.42;22.15;;;;;;;;;;5072987;28;20070;-61
2021/06/23 09:07:42;;;;;;;27.75;19.48;;;;;;;;;;5072977;28;20036;-60
2021/06/23 09:10:28;;;;;;;22.80;17.52;;;;;;;;;;5072843;28;20078;-60
2021/06/23 09:12:59;;;;;;;23.02;18.92;;;;;;;;;;5058885;28;20032;-60
2021/06/23 09:15:41;;;;;;;27.63;19.67;;;;;;;;;;5072765;28;20032;-61
2021/06/23 09:18:18;;;;;;;26.00;18.65;;;;;;;;;;5072820;28;20024;-61
2021/06/23 09:20:45;;;;;;;27.75;21.60;;;;;;;;;;5072749;28;20132;-61
2021/06/23 09:23:10;;;;;;;27.30;20.83;;;;;;;;;;5072638;28;20021;-61
2021/06/23 09:25:38;;;;;;;22.88;18.08;;;;;;;;;;5072782;28;20078;-61
2021/06/23 09:28:04;;;;;;;22.52;16.42;;;;;;;;;;5072779;28;20027;-61
2021/06/23 09:30:37;;;;;;;27.50;19.90;;;;;;;;;;5054798;28;20032;-60
2021/06/23 09:33:06;;;;;;;29.70;21.88;;;;;;;;;;5072716;28;20048;-61
2021/06/23 09:35:31;;;;;;;27.50;22.08;;;;;;;;;;5054714;28;20016;-60
2021/06/23 09:37:57;;;;;;;26.58;20.45;;;;;;;;;;5072471;28;20017;-60
2021/06/23 09:40:24;;;;;;;26.52;20.33;;;;;;;;;;5072684;28;20025;-61
2021/06/23 09:42:54;;;;;;;25.23;19.27;;;;;;;;;;5072531;28;20156;-61
2021/06/23 09:45:19;;;;;;;24.03;19.53;;;;;;;;;;5072553;28;20037;-61
2021/06/23 09:47:46;;;;;;;21.92;17.67;;;;;;;;;;5072408;28;20024;-60
2021/06/23 09:50:22;;;;;;;20.58;15.23;;;;;;;;;;5054164;28;20146;-60
2021/06/23 09:52:57;;;;;;;20.25;15.55;;;;;;;;;;5073968;28;20091;-61
2021/06/23 09:55:33;;;;;;;27.10;19.90;;;;;;;;;;5076067;28;20025;-61
2021/06/23 09:58:12;;;;;;;20.30;17.10;;;;;;;;;;5058210;28;20103;-61
2021/06/23 10:00:57;;;;;;;26.73;17.57;;;;;;;;;;5075990;28;20051;-61
2021/06/23 10:03:23;;;;;;;24.65;18.67;;;;;;;;;;5076194;28;20036;-60
2021/06/23 10:05:49;;;;;;;26.42;18.20;;;;;;;;;;5058018;28;20021;-61
2021/06/23 10:08:21;;;;;;;22.30;17.50;;;;;;;;;;5075860;28;20515;-60
2021/06/23 10:10:47;;;;;;;26.27;19.25;;;;;;;;;;5075848;28;20036;-62
2021/06/23 10:13:13;;;;;;;23.38;17.38;;;;;;;;;;5075903;28;20012;-61
2021/06/23 10:15:38;;;;;;;22.10;16.90;;;;;;;;;;5075721;28;20024;-61
2021/06/23 10:18:05;;;;;;;21.33;16.08;;;;;;;;;;5075631;28;20483;-61
2021/06/23 10:20:31;;;;;;;20.13;17.40;;;;;;;;;;5075593;28;20033;-61
2021/06/23 10:22:56;;;;;;;23.55;17.10;;;;;;;;;;5075742;28;20024;-60
2021/06/23 10:25:23;;;;;;;19.73;15.15;;;;;;;;;;5057620;28;20460;-61
2021/06/23 10:27:53;;;;;;;22.90;18.77;;;;;;;;;;5075534;28;20074;-61
2021/06/23 10:30:19;;;;;;;24.60;19.92;;;;;;;;;;5075514;28;20056;-61
2021/06/23 10:32:44;;;;;;;25.63;19.48;;;;;;;;;;5075481;28;20549;-62
2021/06/23 10:35:11;;;;;;;26.85;20.25;;;;;;;;;;5075003;28;20039;-60
2021/06/23 10:37:38;;;;;;;25.63;19.48;;;;;;;;;;5075429;28;20021;-61
2021/06/23 10:40:05;;;;;;;27.20;18.58;;;;;;;;;;5075465;28;20106;-61
2021/06/23 10:42:31;;;;;;;26.88;19.48;;;;;;;;;;5075170;28;20460;-61
2021/06/23 10:44:57;;;;;;;22.50;18.23;;;;;;;;;;5075141;28;20484;-61
2021/06/23 10:47:37;;;;;;;25.58;16.80;;;;;;;;;;5075147;28;20039;-61
2021/06/23 10:50:04;;;;;;;23.92;18.10;;;;;;;;;;5075036;28;20423;-60
2021/06/23 10:52:30;;;;;;;26.88;20.90;;;;;;;;;;5075039;28;20012;-61
2021/06/23 10:54:57;;;;;;;21.50;18.17;;;;;;;;;;5057157;28;20052;-60
2021/06/23 10:57:29;;;;;;;24.60;19.17;;;;;;;;;;5057259;28;20028;-60
2021/06/23 11:00:00;;;;;;;26.60;20.52;;;;;;;;;;5074491;28;20072;-61
2021/06/23 11:02:28;;;;;;;24.20;18.55;;;;;;;;;;5074982;28;20500;-61
2021/06/23 11:05:04;;;;;;;23.25;18.63;;;;;;;;;;5073355;28;20045;-61
2021/06/23 11:07:49;;;;;;;26.25;20.85;;;;;;;;;;5056924;28;20039;-61
2021/06/23 11:10:15;;;;;;;20.77;17.88;;;;;;;;;;5074340;28;20043;-61
2021/06/23 11:12:44;;;;;;;27.45;19.35;;;;;;;;;;5074702;28;20016;-61
2021/06/23 11:15:18;;;;;;;24.23;19.38;;;;;;;;;;5074658;28;20032;-61
2021/06/23 11:17:45;;;;;;;20.52;17.85;;;;;;;;;;5074692;28;20085;-60
2021/06/23 11:20:19;;;;;;;22.80;19.50;;;;;;;;;;5074549;28;20023;-61
2021/06/23 11:22:49;;;;;;;24.38;19.00;;;;;;;;;;5074363;28;20037;-61
2021/06/23 11:25:21;;;;;;;18.77;15.43;;;;;;;;;;5056545;28;20391;-61
2021/06/23 11:28:05;;;;;;;21.25;16.33;;;;;;;;;;5074458;28;20476;-62
2021/06/23 11:30:31;;;;;;;21.85;17.60;;;;;;;;;;5074402;28;20025;-61
2021/06/23 11:32:56;;;;;;;20.10;17.23;;;;;;;;;;5074402;28;20031;-61
2021/06/23 11:35:22;;;;;;;20.10;17.17;;;;;;;;;;5056436;28;20033;-61
2021/06/23 11:37:47;;;;;;;22.05;16.85;;;;;;;;;;5056217;28;20025;-61
2021/06/23 11:40:14;;;;;;;22.00;16.98;;;;;;;;;;5074130;28;20422;-61
2021/06/23 11:42:40;;;;;;;17.52;15.65;;;;;;;;;;5074581;28;20111;-61
2021/06/23 11:45:06;;;;;;;23.23;17.80;;;;;;;;;;5074077;28;20075;-60
2021/06/23 11:47:31;;;;;;;21.05;17.23;;;;;;;;;;5074193;28;20056;-60
2021/06/23 11:49:57;;;;;;;21.17;17.65;;;;;;;;;;5056180;28;20484;-60
2021/06/23 11:52:22;;;;;;;19.98;16.63;;;;;;;;;;5074212;28;20460;-61
2021/06/23 11:54:49;;;;;;;21.23;16.27;;;;;;;;;;5074249;28;20115;-61
2021/06/23 11:57:15;;;;;;;19.52;15.68;;;;;;;;;;5073934;28;20016;-60
2021/06/23 11:59:44;;;;;;;22.80;17.58;;;;;;;;;;5073353;28;20086;-60
2021/06/23 12:02:09;;;;;;;18.05;16.17;;;;;;;;;;5055949;28;20063;-60
2021/06/23 12:04:35;;;;;;;20.17;15.20;;;;;;;;;;5073852;28;20040;-61
2021/06/23 12:07:00;;;;;;;21.15;17.17;;;;;;;;;;5056057;28;20012;-60
2021/06/23 12:09:26;;;;;;;23.02;16.30;;;;;;;;;;5073652;28;20059;-60
2021/06/23 12:11:52;;;;;;;25.05;17.88;;;;;;;;;;5056056;28;20024;-59
2021/06/23 12:14:17;;;;;;;20.40;16.17;;;;;;;;;;5073689;28;20028;-59
2021/06/23 12:16:44;;;;;;;21.13;16.00;;;;;;;;;;5073196;28;20020;-60
2021/06/23 12:19:10;;;;;;;21.15;16.63;;;;;;;;;;5055652;28;20028;-60
2021/06/23 12:21:36;;;;;;;21.65;17.52;;;;;;;;;;5073680;28;20116;-61
2021/06/23 12:24:02;;;;;;;21.55;16.33;;;;;;;;;;5073202;28;20064;-61
2021/06/23 12:26:27;;;;;;;18.45;16.35;;;;;;;;;;5072217;28;20067;-60
2021/06/23 12:28:52;;;;;;;21.70;17.35;;;;;;;;;;5073253;28;20028;-61
2021/06/23 12:31:18;;;;;;;22.83;17.95;;;;;;;;;;5073453;28;20027;-60
2021/06/23 12:33:44;;;;;;;19.98;16.23;;;;;;;;;;5073454;28;20090;-59
2021/06/23 12:36:11;;;;;;;20.25;17.73;;;;;;;;;;5073545;28;20021;-59
2021/06/23 12:38:37;;;;;;;21.30;17.45;;;;;;;;;;5073155;28;20024;-60
2021/06/23 12:41:03;;;;;;;17.85;14.93;;;;;;;;;;5055453;28;20024;-60
2021/06/23 12:43:29;;;;;;;16.80;14.85;;;;;;;;;;5073138;28;20043;-60
2021/06/23 12:45:54;;;;;;;20.08;17.10;;;;;;;;;;5073134;28;20020;-60
2021/06/23 12:48:21;;;;;;;20.27;16.73;;;;;;;;;;5073469;28;20025;-60
2021/06/23 12:50:46;;;;;;;17.17;14.45;;;;;;;;;;5073082;28;20093;-60
2021/06/23 12:53:12;;;;;;;18.02;15.65;;;;;;;;;;5073511;28;20024;-60
2021/06/23 12:55:37;;;;;;;18.23;16.20;;;;;;;;;;5073002;28;20402;-60
2021/06/23 12:58:03;;;;;;;18.70;15.45;;;;;;;;;;5072731;28;20029;-60
2021/06/23 13:00:28;;;;;;;21.65;17.63;;;;;;;;;;5072570;28;20483;-59
2021/06/23 13:02:54;;;;;;;22.70;16.38;;;;;;;;;;5054671;28;20033;-61
2021/06/23 13:05:19;;;;;;;22.88;17.25;;;;;;;;;;5072906;28;20023;-60
2021/06/23 13:07:45;;;;;;;23.77;16.27;;;;;;;;;;5054271;28;20040;-60
2021/06/23 13:10:11;;;;;;;16.35;14.63;;;;;;;;;;5072383;28;20025;-61
2021/06/23 13:12:37;;;;;;;21.38;16.38;;;;;;;;;;5072529;28;20506;-60
2021/06/23 13:15:03;;;;;;;22.20;17.02;;;;;;;;;;5054754;28;20021;-60
2021/06/23 13:17:29;;;;;;;19.33;14.95;;;;;;;;;;5073016;28;20024;-60
2021/06/23 13:19:54;;;;;;;22.10;15.65;;;;;;;;;;5072622;28;20021;-60
2021/06/23 13:22:20;;;;;;;19.98;17.42;;;;;;;;;;5072835;28;20032;-59
2021/06/23 13:24:45;;;;;;;18.88;15.73;;;;;;;;;;5054566;28;20052;-60
2021/06/23 13:27:11;;;;;;;17.27;15.25;;;;;;;;;;5074953;28;20036;-60
2021/06/23 13:29:37;;;;;;;15.82;12.98;;;;;;;;;;5076687;28;20016;-61
2021/06/23 13:32:05;;;;;;;18.27;14.55;;;;;;;;;;5076629;28;20024;-60
2021/06/23 13:34:32;;;;;;;19.48;16.90;;;;;;;;;;5076535;28;20046;-61
2021/06/23 13:36:58;;;;;;;18.10;14.38;;;;;;;;;;5076483;28;20023;-60
2021/06/23 13:39:23;;;;;;;21.38;17.20;;;;;;;;;;5076375;28;20082;-60
2021/06/23 13:41:49;;;;;;;20.20;15.43;;;;;;;;;;5076717;28;20024;-61
2021/06/23 13:44:14;;;;;;;18.80;15.82;;;;;;;;;;5076419;28;20020;-59
2021/06/23 13:46:40;;;;;;;16.38;14.00;;;;;;;;;;5058874;28;20066;-60
2021/06/23 13:49:06;;;;;;;15.88;13.23;;;;;;;;;;5076620;28;20039;-61
2021/06/23 13:51:31;;;;;;;20.02;13.25;;;;;;;;;;5076625;28;20028;-61
2021/06/23 13:53:57;;;;;;;21.35;15.65;;;;;;;;;;5076699;28;20027;-61
2021/06/23 13:56:23;;;;;;;21.23;17.33;;;;;;;;;;5076759;28;20030;-61
2021/06/23 13:58:49;;;;;;;23.20;18.95;;;;;;;;;;5076146;28;20380;-60
2021/06/23 14:01:14;;;;;;;22.85;18.23;;;;;;;;;;5076356;28;20036;-60
2021/06/23 14:03:40;;;;;;;23.35;18.45;;;;;;;;;;5076292;28;20533;-60
2021/06/23 14:06:05;;;;;;;23.17;18.52;;;;;;;;;;5076239;28;20036;-61
2021/06/23 14:08:30;;;;;;;27.38;19.50;;;;;;;;;;5076213;28;20107;-60
2021/06/23 14:10:56;;;;;;;25.52;18.90;;;;;;;;;;5075997;28;20028;-61
2021/06/23 14:13:21;;;;;;;28.25;20.42;;;;;;;;;;5075723;28;20055;-60
2021/06/23 14:15:47;;;;;;;28.60;20.63;;;;;;;;;;5058498;28;20108;-60
2021/06/23 14:18:13;;;;;;;27.85;19.02;;;;;;;;;;5076063;28;20020;-61
2021/06/23 14:20:39;;;;;;;23.15;17.80;;;;;;;;;;5076371;28;20082;-60
2021/06/23 14:23:06;;;;;;;30.85;19.65;;;;;;;;;;5076297;28;20066;-60
2021/06/23 14:25:32;;;;;;;23.42;18.75;;;;;;;;;;5058204;28;20032;-60
2021/06/23 14:27:58;;;;;;;22.63;18.10;;;;;;;;;;5075957;28;20021;-60
2021/06/23 14:30:23;;;;;;;25.80;18.42;;;;;;;;;;5075754;28;20081;-60
2021/06/23 14:32:49;;;;;;;26.23;19.38;;;;;;;;;;5058155;28;20468;-60
2021/06/23 14:35:16;;;;;;;23.02;19.35;;;;;;;;;;5075951;28;20162;-61